sensor_id;sensor_type;location;lat;lon;timestamp;P1;durP1;ratioP1;P2;durP2;ratioP2
70576;SDS011;58138;43.138;24.702;2022-12-08T00:00:55;27.10;;;15.30;;
70576;SDS011;58138;43.138;24.702;2022-12-08T00:03:20;27.02;;;15.05;;
70576;SDS011;58138;43.138;24.702;2022-12-08T00:05:46;24.08;;;15.10;;
70576;SDS011;58138;43.138;24.702;2022-12-08T00:08:31;32.53;;;17.85;;
70576;SDS011;58138;43.138;24.702;2022-12-08T00:11:16;23.80;;;14.18;;
70576;SDS011;58138;43.138;24.702;2022-12-08T00:13:42;23.73;;;13.98;;
70576;SDS011;58138;43.138;24.702;2022-12-08T00:16:08;26.02;;;14.45;;
70576;SDS011;58138;43.138;24.702;2022-12-08T00:18:33;29.52;;;16.30;;
70576;SDS011;58138;43.138;24.702;2022-12-08T00:20:59;24.63;;;14.35;;
70576;SDS011;58138;43.138;24.702;2022-12-08T00:23:25;28.23;;;15.93;;
70576;SDS011;58138;43.138;24.702;2022-12-08T00:25:50;32.00;;;17.25;;
70576;SDS011;58138;43.138;24.702;2022-12-08T00:28:16;27.17;;;15.48;;
70576;SDS011;58138;43.138;24.702;2022-12-08T00:30:41;27.63;;;15.65;;
70576;SDS011;58138;43.138;24.702;2022-12-08T00:33:07;25.58;;;15.00;;
70576;SDS011;58138;43.138;24.702;2022-12-08T00:35:33;25.55;;;15.30;;
70576;SDS011;58138;43.138;24.702;2022-12-08T00:37:59;23.98;;;14.45;;
70576;SDS011;58138;43.138;24.702;2022-12-08T00:40:25;24.85;;;14.50;;
70576;SDS011;58138;43.138;24.702;2022-12-08T00:42:50;23.88;;;13.60;;
70576;SDS011;58138;43.138;24.702;2022-12-08T00:45:16;25.98;;;15.38;;
70576;SDS011;58138;43.138;24.702;2022-12-08T00:47:41;24.38;;;14.73;;
70576;SDS011;58138;43.138;24.702;2022-12-08T00:50:07;22.08;;;14.10;;
70576;SDS011;58138;43.138;24.702;2022-12-08T00:52:32;23.42;;;14.80;;
70576;SDS011;58138;43.138;24.702;2022-12-08T00:54:58;23.35;;;14.68;;
70576;SDS011;58138;43.138;24.702;2022-12-08T00:57:23;27.40;;;14.90;;
70576;SDS011;58138;43.138;24.702;2022-12-08T00:59:49;27.75;;;15.23;;
70576;SDS011;58138;43.138;24.702;2022-12-08T01:02:14;25.38;;;14.98;;
70576;SDS011;58138;43.138;24.702;2022-12-08T01:04:39;26.52;;;14.95;;
70576;SDS011;58138;43.138;24.702;2022-12-08T01:07:06;26.75;;;15.30;;
70576;SDS011;58138;43.138;24.702;2022-12-08T01:09:31;22.48;;;12.80;;
70576;SDS011;58138;43.138;24.702;2022-12-08T01:11:58;21.00;;;12.75;;
70576;SDS011;58138;43.138;24.702;2022-12-08T01:14:24;23.23;;;13.82;;
70576;SDS011;58138;43.138;24.702;2022-12-08T01:16:50;26.75;;;14.38;;
70576;SDS011;58138;43.138;24.702;2022-12-08T01:19:15;21.33;;;12.32;;
70576;SDS011;58138;43.138;24.702;2022-12-08T01:21:41;21.08;;;13.30;;
70576;SDS011;58138;43.138;24.702;2022-12-08T01:24:17;25.20;;;14.13;;
70576;SDS011;58138;43.138;24.702;2022-12-08T01:26:44;20.80;;;12.52;;
70576;SDS011;58138;43.138;24.702;2022-12-08T01:29:10;16.90;;;9.63;;
70576;SDS011;58138;43.138;24.702;2022-12-08T01:31:37;17.83;;;10.35;;
70576;SDS011;58138;43.138;24.702;2022-12-08T01:34:03;18.90;;;11.57;;
70576;SDS011;58138;43.138;24.702;2022-12-08T01:36:30;18.40;;;11.27;;
70576;SDS011;58138;43.138;24.702;2022-12-08T01:38:57;22.45;;;12.25;;
70576;SDS011;58138;43.138;24.702;2022-12-08T01:41:25;18.77;;;11.15;;
70576;SDS011;58138;43.138;24.702;2022-12-08T01:46:31;9.75;;;5.55;;
70576;SDS011;58138;43.138;24.702;2022-12-08T01:49:20;11.98;;;7.55;;
70576;SDS011;58138;43.138;24.702;2022-12-08T01:54:38;13.27;;;8.75;;
70576;SDS011;58138;43.138;24.702;2022-12-08T01:57:07;12.70;;;8.48;;
70576;SDS011;58138;43.138;24.702;2022-12-08T01:59:36;16.38;;;10.23;;
70576;SDS011;58138;43.138;24.702;2022-12-08T02:02:04;15.07;;;10.05;;
70576;SDS011;58138;43.138;24.702;2022-12-08T02:04:29;16.73;;;10.32;;
70576;SDS011;58138;43.138;24.702;2022-12-08T02:06:55;14.15;;;9.68;;
70576;SDS011;58138;43.138;24.702;2022-12-08T02:09:20;12.52;;;8.15;;
70576;SDS011;58138;43.138;24.702;2022-12-08T02:11:46;13.93;;;8.77;;
70576;SDS011;58138;43.138;24.702;2022-12-08T02:14:12;14.50;;;8.07;;
70576;SDS011;58138;43.138;24.702;2022-12-08T02:26:56;14.50;;;10.07;;
70576;SDS011;58138;43.138;24.702;2022-12-08T02:43:46;13.55;;;8.60;;
70576;SDS011;58138;43.138;24.702;2022-12-08T02:46:00;14.90;;;8.57;;
70576;SDS011;58138;43.138;24.702;2022-12-08T02:48:32;12.43;;;8.52;;
70576;SDS011;58138;43.138;24.702;2022-12-08T02:50:58;13.70;;;8.30;;
70576;SDS011;58138;43.138;24.702;2022-12-08T02:53:23;17.05;;;9.80;;
70576;SDS011;58138;43.138;24.702;2022-12-08T03:01:41;15.15;;;8.80;;
70576;SDS011;58138;43.138;24.702;2022-12-08T03:04:16;14.23;;;7.45;;
70576;SDS011;58138;43.138;24.702;2022-12-08T03:06:49;12.95;;;8.73;;
70576;SDS011;58138;43.138;24.702;2022-12-08T03:12:05;14.90;;;8.48;;
70576;SDS011;58138;43.138;24.702;2022-12-08T03:14:36;12.45;;;8.60;;
70576;SDS011;58138;43.138;24.702;2022-12-08T03:17:03;12.02;;;8.00;;
70576;SDS011;58138;43.138;24.702;2022-12-08T03:19:30;11.95;;;7.60;;
70576;SDS011;58138;43.138;24.702;2022-12-08T03:21:59;11.35;;;8.38;;
70576;SDS011;58138;43.138;24.702;2022-12-08T03:24:30;12.07;;;8.15;;
70576;SDS011;58138;43.138;24.702;2022-12-08T03:27:01;11.30;;;8.02;;
70576;SDS011;58138;43.138;24.702;2022-12-08T03:29:29;10.30;;;7.40;;
70576;SDS011;58138;43.138;24.702;2022-12-08T03:32:01;14.18;;;9.65;;
70576;SDS011;58138;43.138;24.702;2022-12-08T03:34:33;13.50;;;8.88;;
70576;SDS011;58138;43.138;24.702;2022-12-08T03:36:59;12.73;;;8.98;;
70576;SDS011;58138;43.138;24.702;2022-12-08T03:39:26;13.15;;;8.48;;
70576;SDS011;58138;43.138;24.702;2022-12-08T03:41:52;13.57;;;9.07;;
70576;SDS011;58138;43.138;24.702;2022-12-08T03:44:17;17.17;;;10.27;;
70576;SDS011;58138;43.138;24.702;2022-12-08T03:46:43;11.13;;;7.88;;
70576;SDS011;58138;43.138;24.702;2022-12-08T03:49:09;15.98;;;8.60;;
70576;SDS011;58138;43.138;24.702;2022-12-08T03:51:35;12.80;;;8.45;;
70576;SDS011;58138;43.138;24.702;2022-12-08T03:54:00;15.70;;;9.50;;
70576;SDS011;58138;43.138;24.702;2022-12-08T03:56:27;11.50;;;6.90;;
70576;SDS011;58138;43.138;24.702;2022-12-08T03:58:57;17.50;;;10.95;;
70576;SDS011;58138;43.138;24.702;2022-12-08T04:01:23;18.75;;;10.95;;
70576;SDS011;58138;43.138;24.702;2022-12-08T04:03:49;17.55;;;11.38;;
70576;SDS011;58138;43.138;24.702;2022-12-08T04:06:15;17.27;;;11.50;;
70576;SDS011;58138;43.138;24.702;2022-12-08T04:08:41;22.83;;;15.60;;
70576;SDS011;58138;43.138;24.702;2022-12-08T04:11:06;20.98;;;13.25;;
70576;SDS011;58138;43.138;24.702;2022-12-08T04:13:33;17.88;;;12.20;;
70576;SDS011;58138;43.138;24.702;2022-12-08T04:15:59;18.75;;;11.45;;
70576;SDS011;58138;43.138;24.702;2022-12-08T04:18:24;17.95;;;12.25;;
70576;SDS011;58138;43.138;24.702;2022-12-08T04:20:50;20.85;;;13.25;;
70576;SDS011;58138;43.138;24.702;2022-12-08T04:23:16;20.70;;;12.90;;
70576;SDS011;58138;43.138;24.702;2022-12-08T04:25:41;20.88;;;13.07;;
70576;SDS011;58138;43.138;24.702;2022-12-08T04:28:07;23.70;;;14.23;;
70576;SDS011;58138;43.138;24.702;2022-12-08T04:30:32;23.92;;;14.80;;
70576;SDS011;58138;43.138;24.702;2022-12-08T04:32:58;24.20;;;16.00;;
70576;SDS011;58138;43.138;24.702;2022-12-08T04:35:23;24.25;;;15.25;;
70576;SDS011;58138;43.138;24.702;2022-12-08T04:37:49;22.03;;;14.17;;
70576;SDS011;58138;43.138;24.702;2022-12-08T04:40:15;20.75;;;13.38;;
70576;SDS011;58138;43.138;24.702;2022-12-08T04:42:41;21.60;;;14.40;;
70576;SDS011;58138;43.138;24.702;2022-12-08T04:45:07;23.85;;;16.15;;
70576;SDS011;58138;43.138;24.702;2022-12-08T04:47:32;20.88;;;13.00;;
70576;SDS011;58138;43.138;24.702;2022-12-08T04:49:58;21.13;;;14.00;;
70576;SDS011;58138;43.138;24.702;2022-12-08T04:52:24;24.67;;;15.40;;
70576;SDS011;58138;43.138;24.702;2022-12-08T04:54:49;16.45;;;11.23;;
70576;SDS011;58138;43.138;24.702;2022-12-08T04:57:15;24.42;;;13.48;;
70576;SDS011;58138;43.138;24.702;2022-12-08T04:59:40;28.42;;;18.13;;
70576;SDS011;58138;43.138;24.702;2022-12-08T05:02:06;22.73;;;14.32;;
70576;SDS011;58138;43.138;24.702;2022-12-08T05:04:31;25.60;;;15.55;;
70576;SDS011;58138;43.138;24.702;2022-12-08T05:06:57;23.88;;;15.45;;
70576;SDS011;58138;43.138;24.702;2022-12-08T05:09:23;18.35;;;12.30;;
70576;SDS011;58138;43.138;24.702;2022-12-08T05:11:48;24.05;;;14.32;;
70576;SDS011;58138;43.138;24.702;2022-12-08T05:14:14;26.58;;;16.85;;
70576;SDS011;58138;43.138;24.702;2022-12-08T05:16:41;24.33;;;14.10;;
70576;SDS011;58138;43.138;24.702;2022-12-08T05:19:07;18.95;;;11.23;;
70576;SDS011;58138;43.138;24.702;2022-12-08T05:21:32;22.42;;;13.05;;
70576;SDS011;58138;43.138;24.702;2022-12-08T05:23:58;29.95;;;16.50;;
70576;SDS011;58138;43.138;24.702;2022-12-08T05:26:24;14.25;;;8.23;;
70576;SDS011;58138;43.138;24.702;2022-12-08T05:28:49;18.02;;;11.50;;
70576;SDS011;58138;43.138;24.702;2022-12-08T05:31:15;18.95;;;11.63;;
70576;SDS011;58138;43.138;24.702;2022-12-08T05:33:41;18.40;;;10.32;;
70576;SDS011;58138;43.138;24.702;2022-12-08T05:36:08;8.77;;;6.05;;
70576;SDS011;58138;43.138;24.702;2022-12-08T05:38:34;19.33;;;10.93;;
70576;SDS011;58138;43.138;24.702;2022-12-08T05:41:00;18.83;;;10.40;;
70576;SDS011;58138;43.138;24.702;2022-12-08T05:43:25;7.53;;;4.32;;
70576;SDS011;58138;43.138;24.702;2022-12-08T05:45:51;17.20;;;10.68;;
70576;SDS011;58138;43.138;24.702;2022-12-08T05:48:16;15.45;;;10.23;;
70576;SDS011;58138;43.138;24.702;2022-12-08T05:50:45;16.02;;;9.98;;
70576;SDS011;58138;43.138;24.702;2022-12-08T05:53:12;17.33;;;11.60;;
70576;SDS011;58138;43.138;24.702;2022-12-08T05:55:37;17.88;;;11.40;;
70576;SDS011;58138;43.138;24.702;2022-12-08T05:58:03;30.10;;;17.02;;
70576;SDS011;58138;43.138;24.702;2022-12-08T06:00:28;18.67;;;11.43;;
70576;SDS011;58138;43.138;24.702;2022-12-08T06:02:54;15.38;;;11.10;;
70576;SDS011;58138;43.138;24.702;2022-12-08T06:05:20;17.55;;;10.73;;
70576;SDS011;58138;43.138;24.702;2022-12-08T06:07:45;17.73;;;12.25;;
70576;SDS011;58138;43.138;24.702;2022-12-08T06:10:11;10.15;;;6.05;;
70576;SDS011;58138;43.138;24.702;2022-12-08T06:12:36;20.15;;;12.27;;
70576;SDS011;58138;43.138;24.702;2022-12-08T06:15:02;18.45;;;12.75;;
70576;SDS011;58138;43.138;24.702;2022-12-08T06:17:28;18.73;;;11.77;;
70576;SDS011;58138;43.138;24.702;2022-12-08T06:19:53;21.15;;;11.70;;
70576;SDS011;58138;43.138;24.702;2022-12-08T06:22:19;19.30;;;12.23;;
70576;SDS011;58138;43.138;24.702;2022-12-08T06:24:44;23.15;;;13.85;;
70576;SDS011;58138;43.138;24.702;2022-12-08T06:27:10;25.23;;;14.98;;
70576;SDS011;58138;43.138;24.702;2022-12-08T06:29:35;17.25;;;10.60;;
70576;SDS011;58138;43.138;24.702;2022-12-08T06:32:01;18.77;;;12.43;;
70576;SDS011;58138;43.138;24.702;2022-12-08T06:34:26;20.10;;;12.65;;
70576;SDS011;58138;43.138;24.702;2022-12-08T06:36:52;25.83;;;14.82;;
70576;SDS011;58138;43.138;24.702;2022-12-08T06:39:17;20.67;;;14.07;;
70576;SDS011;58138;43.138;24.702;2022-12-08T06:41:43;17.80;;;12.52;;
70576;SDS011;58138;43.138;24.702;2022-12-08T06:44:27;19.98;;;13.25;;
70576;SDS011;58138;43.138;24.702;2022-12-08T06:46:52;21.23;;;16.58;;
70576;SDS011;58138;43.138;24.702;2022-12-08T06:49:18;18.45;;;12.75;;
70576;SDS011;58138;43.138;24.702;2022-12-08T06:51:43;17.15;;;12.98;;
70576;SDS011;58138;43.138;24.702;2022-12-08T06:54:09;17.88;;;11.60;;
70576;SDS011;58138;43.138;24.702;2022-12-08T06:56:34;68.75;;;45.03;;
70576;SDS011;58138;43.138;24.702;2022-12-08T06:58:59;17.50;;;12.63;;
70576;SDS011;58138;43.138;24.702;2022-12-08T07:01:25;16.77;;;11.07;;
70576;SDS011;58138;43.138;24.702;2022-12-08T07:03:50;16.20;;;11.32;;
70576;SDS011;58138;43.138;24.702;2022-12-08T07:06:20;13.60;;;10.05;;
70576;SDS011;58138;43.138;24.702;2022-12-08T07:08:47;17.10;;;11.60;;
70576;SDS011;58138;43.138;24.702;2022-12-08T07:11:12;19.63;;;13.38;;
70576;SDS011;58138;43.138;24.702;2022-12-08T07:13:38;18.55;;;13.27;;
70576;SDS011;58138;43.138;24.702;2022-12-08T07:16:04;23.02;;;14.98;;
70576;SDS011;58138;43.138;24.702;2022-12-08T07:18:31;18.38;;;12.77;;
70576;SDS011;58138;43.138;24.702;2022-12-08T07:21:00;33.00;;;20.17;;
70576;SDS011;58138;43.138;24.702;2022-12-08T07:23:27;59.80;;;32.20;;
70576;SDS011;58138;43.138;24.702;2022-12-08T07:25:52;36.17;;;20.48;;
70576;SDS011;58138;43.138;24.702;2022-12-08T07:28:18;23.88;;;14.88;;
70576;SDS011;58138;43.138;24.702;2022-12-08T07:30:44;22.30;;;13.52;;
70576;SDS011;58138;43.138;24.702;2022-12-08T07:33:09;19.55;;;13.68;;
70576;SDS011;58138;43.138;24.702;2022-12-08T07:35:34;14.00;;;9.70;;
70576;SDS011;58138;43.138;24.702;2022-12-08T07:38:00;13.57;;;9.00;;
70576;SDS011;58138;43.138;24.702;2022-12-08T07:40:25;12.30;;;9.20;;
70576;SDS011;58138;43.138;24.702;2022-12-08T07:42:51;14.15;;;10.48;;
70576;SDS011;58138;43.138;24.702;2022-12-08T07:45:17;15.65;;;10.70;;
70576;SDS011;58138;43.138;24.702;2022-12-08T07:47:42;22.13;;;12.85;;
70576;SDS011;58138;43.138;24.702;2022-12-08T07:50:07;20.67;;;11.10;;
70576;SDS011;58138;43.138;24.702;2022-12-08T07:52:34;13.35;;;9.00;;
70576;SDS011;58138;43.138;24.702;2022-12-08T07:54:59;17.23;;;9.25;;
70576;SDS011;58138;43.138;24.702;2022-12-08T07:57:25;12.93;;;9.27;;
70576;SDS011;58138;43.138;24.702;2022-12-08T07:59:50;19.63;;;11.00;;
70576;SDS011;58138;43.138;24.702;2022-12-08T08:02:16;15.45;;;9.48;;
70576;SDS011;58138;43.138;24.702;2022-12-08T08:04:43;12.68;;;9.48;;
70576;SDS011;58138;43.138;24.702;2022-12-08T08:07:08;11.50;;;8.63;;
70576;SDS011;58138;43.138;24.702;2022-12-08T08:09:34;13.48;;;9.77;;
70576;SDS011;58138;43.138;24.702;2022-12-08T08:11:59;15.88;;;11.27;;
70576;SDS011;58138;43.138;24.702;2022-12-08T08:14:24;14.15;;;9.93;;
70576;SDS011;58138;43.138;24.702;2022-12-08T08:16:50;16.23;;;10.85;;
70576;SDS011;58138;43.138;24.702;2022-12-08T08:19:15;13.52;;;9.70;;
70576;SDS011;58138;43.138;24.702;2022-12-08T08:21:41;15.32;;;11.88;;
70576;SDS011;58138;43.138;24.702;2022-12-08T08:24:06;18.33;;;12.85;;
70576;SDS011;58138;43.138;24.702;2022-12-08T08:26:32;25.48;;;13.75;;
70576;SDS011;58138;43.138;24.702;2022-12-08T08:28:58;20.23;;;12.35;;
70576;SDS011;58138;43.138;24.702;2022-12-08T08:31:24;17.10;;;11.82;;
70576;SDS011;58138;43.138;24.702;2022-12-08T08:33:49;22.10;;;17.83;;
70576;SDS011;58138;43.138;24.702;2022-12-08T08:36:15;14.30;;;9.95;;
70576;SDS011;58138;43.138;24.702;2022-12-08T08:38:40;18.05;;;11.88;;
70576;SDS011;58138;43.138;24.702;2022-12-08T08:41:08;13.35;;;9.45;;
70576;SDS011;58138;43.138;24.702;2022-12-08T08:43:34;16.48;;;10.90;;
70576;SDS011;58138;43.138;24.702;2022-12-08T08:46:00;14.95;;;10.70;;
70576;SDS011;58138;43.138;24.702;2022-12-08T08:48:26;20.42;;;12.25;;
70576;SDS011;58138;43.138;24.702;2022-12-08T08:50:53;15.30;;;11.23;;
70576;SDS011;58138;43.138;24.702;2022-12-08T08:53:19;17.55;;;14.50;;
70576;SDS011;58138;43.138;24.702;2022-12-08T08:55:44;24.02;;;16.35;;
70576;SDS011;58138;43.138;24.702;2022-12-08T08:58:10;22.83;;;15.23;;
70576;SDS011;58138;43.138;24.702;2022-12-08T09:00:35;19.42;;;12.82;;
70576;SDS011;58138;43.138;24.702;2022-12-08T09:03:01;21.10;;;15.68;;
70576;SDS011;58138;43.138;24.702;2022-12-08T09:05:26;22.30;;;14.80;;
70576;SDS011;58138;43.138;24.702;2022-12-08T09:07:52;17.20;;;13.23;;
70576;SDS011;58138;43.138;24.702;2022-12-08T09:10:17;16.65;;;11.80;;
70576;SDS011;58138;43.138;24.702;2022-12-08T09:12:43;17.08;;;12.55;;
70576;SDS011;58138;43.138;24.702;2022-12-08T09:15:08;27.42;;;18.92;;
70576;SDS011;58138;43.138;24.702;2022-12-08T09:17:34;54.03;;;32.13;;
70576;SDS011;58138;43.138;24.702;2022-12-08T09:19:59;16.52;;;10.35;;
70576;SDS011;58138;43.138;24.702;2022-12-08T09:22:25;16.63;;;12.23;;
70576;SDS011;58138;43.138;24.702;2022-12-08T09:24:51;14.75;;;9.68;;
70576;SDS011;58138;43.138;24.702;2022-12-08T09:27:16;11.23;;;8.38;;
70576;SDS011;58138;43.138;24.702;2022-12-08T09:29:41;9.68;;;7.60;;
70576;SDS011;58138;43.138;24.702;2022-12-08T09:32:07;27.27;;;15.60;;
70576;SDS011;58138;43.138;24.702;2022-12-08T09:34:32;17.17;;;11.68;;
70576;SDS011;58138;43.138;24.702;2022-12-08T09:36:58;10.88;;;8.05;;
70576;SDS011;58138;43.138;24.702;2022-12-08T09:39:23;13.68;;;10.60;;
70576;SDS011;58138;43.138;24.702;2022-12-08T09:41:49;10.05;;;8.13;;
70576;SDS011;58138;43.138;24.702;2022-12-08T09:47:24;12.63;;;9.73;;
70576;SDS011;58138;43.138;24.702;2022-12-08T09:52:57;12.95;;;8.68;;
70576;SDS011;58138;43.138;24.702;2022-12-08T09:58:02;17.45;;;9.82;;
70576;SDS011;58138;43.138;24.702;2022-12-08T10:00:29;16.63;;;11.68;;
70576;SDS011;58138;43.138;24.702;2022-12-08T10:02:55;11.68;;;9.60;;
70576;SDS011;58138;43.138;24.702;2022-12-08T10:05:21;10.10;;;8.77;;
70576;SDS011;58138;43.138;24.702;2022-12-08T10:10:37;10.20;;;8.18;;
70576;SDS011;58138;43.138;24.702;2022-12-08T10:18:51;17.35;;;10.73;;
70576;SDS011;58138;43.138;24.702;2022-12-08T10:21:20;13.75;;;10.85;;
70576;SDS011;58138;43.138;24.702;2022-12-08T10:23:50;10.20;;;9.10;;
70576;SDS011;58138;43.138;24.702;2022-12-08T10:26:20;12.07;;;8.95;;
70576;SDS011;58138;43.138;24.702;2022-12-08T10:28:46;14.98;;;11.00;;
70576;SDS011;58138;43.138;24.702;2022-12-08T10:31:15;12.15;;;9.93;;
70576;SDS011;58138;43.138;24.702;2022-12-08T10:33:42;11.80;;;9.80;;
70576;SDS011;58138;43.138;24.702;2022-12-08T10:36:09;15.15;;;10.68;;
70576;SDS011;58138;43.138;24.702;2022-12-08T10:38:35;14.77;;;13.13;;
70576;SDS011;58138;43.138;24.702;2022-12-08T10:43:33;18.70;;;12.90;;
70576;SDS011;58138;43.138;24.702;2022-12-08T10:46:09;15.60;;;12.18;;
70576;SDS011;58138;43.138;24.702;2022-12-08T10:48:36;13.75;;;10.73;;
70576;SDS011;58138;43.138;24.702;2022-12-08T10:51:22;11.85;;;9.93;;
70576;SDS011;58138;43.138;24.702;2022-12-08T10:53:54;19.70;;;11.43;;
70576;SDS011;58138;43.138;24.702;2022-12-08T10:56:22;15.10;;;10.40;;
70576;SDS011;58138;43.138;24.702;2022-12-08T10:58:55;14.38;;;12.70;;
70576;SDS011;58138;43.138;24.702;2022-12-08T11:01:39;15.90;;;12.38;;
70576;SDS011;58138;43.138;24.702;2022-12-08T11:04:09;12.75;;;10.80;;
70576;SDS011;58138;43.138;24.702;2022-12-08T11:06:38;16.40;;;11.32;;
70576;SDS011;58138;43.138;24.702;2022-12-08T11:09:31;16.98;;;11.20;;
70576;SDS011;58138;43.138;24.702;2022-12-08T11:12:08;17.35;;;12.02;;
70576;SDS011;58138;43.138;24.702;2022-12-08T11:19:38;18.58;;;11.40;;
70576;SDS011;58138;43.138;24.702;2022-12-08T11:25:00;12.55;;;10.05;;
70576;SDS011;58138;43.138;24.702;2022-12-08T11:27:33;21.50;;;11.60;;
70576;SDS011;58138;43.138;24.702;2022-12-08T11:30:01;20.95;;;10.50;;
70576;SDS011;58138;43.138;24.702;2022-12-08T11:32:27;16.95;;;10.40;;
70576;SDS011;58138;43.138;24.702;2022-12-08T11:34:58;13.25;;;10.57;;
70576;SDS011;58138;43.138;24.702;2022-12-08T11:37:28;15.40;;;11.65;;
70576;SDS011;58138;43.138;24.702;2022-12-08T11:40:02;15.77;;;11.77;;
70576;SDS011;58138;43.138;24.702;2022-12-08T11:42:31;15.85;;;11.20;;
70576;SDS011;58138;43.138;24.702;2022-12-08T11:45:03;28.70;;;20.45;;
70576;SDS011;58138;43.138;24.702;2022-12-08T11:47:33;15.68;;;11.57;;
70576;SDS011;58138;43.138;24.702;2022-12-08T11:52:51;14.57;;;10.15;;
70576;SDS011;58138;43.138;24.702;2022-12-08T11:55:26;16.42;;;10.25;;
70576;SDS011;58138;43.138;24.702;2022-12-08T11:58:21;13.57;;;10.52;;
70576;SDS011;58138;43.138;24.702;2022-12-08T12:00:53;15.05;;;10.68;;
70576;SDS011;58138;43.138;24.702;2022-12-08T12:03:24;19.88;;;13.55;;
70576;SDS011;58138;43.138;24.702;2022-12-08T12:11:39;20.42;;;15.43;;
70576;SDS011;58138;43.138;24.702;2022-12-08T12:14:54;21.83;;;14.95;;
70576;SDS011;58138;43.138;24.702;2022-12-08T12:19:47;17.63;;;13.35;;
70576;SDS011;58138;43.138;24.702;2022-12-08T12:22:16;24.15;;;13.63;;
70576;SDS011;58138;43.138;24.702;2022-12-08T12:24:45;15.63;;;12.38;;
70576;SDS011;58138;43.138;24.702;2022-12-08T12:29:37;21.35;;;12.65;;
70576;SDS011;58138;43.138;24.702;2022-12-08T12:32:04;19.25;;;12.27;;
70576;SDS011;58138;43.138;24.702;2022-12-08T12:34:35;18.45;;;12.73;;
70576;SDS011;58138;43.138;24.702;2022-12-08T12:37:07;19.55;;;14.52;;
70576;SDS011;58138;43.138;24.702;2022-12-08T12:45:11;18.40;;;13.15;;
70576;SDS011;58138;43.138;24.702;2022-12-08T12:48:12;21.45;;;13.65;;
70576;SDS011;58138;43.138;24.702;2022-12-08T12:50:50;20.80;;;14.57;;
70576;SDS011;58138;43.138;24.702;2022-12-08T13:03:46;76.40;;;46.88;;
70576;SDS011;58138;43.138;24.702;2022-12-08T13:06:36;31.00;;;23.48;;
70576;SDS011;58138;43.138;24.702;2022-12-08T13:09:14;34.03;;;23.95;;
70576;SDS011;58138;43.138;24.702;2022-12-08T13:11:45;38.65;;;26.65;;
70576;SDS011;58138;43.138;24.702;2022-12-08T13:14:26;21.45;;;16.42;;
70576;SDS011;58138;43.138;24.702;2022-12-08T13:16:54;21.30;;;16.38;;
70576;SDS011;58138;43.138;24.702;2022-12-08T13:19:20;24.92;;;19.00;;
70576;SDS011;58138;43.138;24.702;2022-12-08T13:21:46;26.90;;;18.83;;
70576;SDS011;58138;43.138;24.702;2022-12-08T13:26:50;23.38;;;17.48;;
70576;SDS011;58138;43.138;24.702;2022-12-08T13:29:35;24.38;;;17.90;;
70576;SDS011;58138;43.138;24.702;2022-12-08T13:37:29;29.42;;;19.13;;
70576;SDS011;58138;43.138;24.702;2022-12-08T13:40:13;30.85;;;19.60;;
70576;SDS011;58138;43.138;24.702;2022-12-08T13:47:36;23.88;;;17.30;;
70576;SDS011;58138;43.138;24.702;2022-12-08T13:50:13;31.55;;;21.98;;
70576;SDS011;58138;43.138;24.702;2022-12-08T13:55:21;44.38;;;27.30;;
70576;SDS011;58138;43.138;24.702;2022-12-08T13:57:55;37.22;;;23.80;;
70576;SDS011;58138;43.138;24.702;2022-12-08T14:00:21;34.00;;;22.75;;
70576;SDS011;58138;43.138;24.702;2022-12-08T14:02:48;37.67;;;26.35;;
70576;SDS011;58138;43.138;24.702;2022-12-08T14:05:15;31.08;;;23.42;;
70576;SDS011;58138;43.138;24.702;2022-12-08T14:07:41;32.05;;;23.15;;
70576;SDS011;58138;43.138;24.702;2022-12-08T14:10:18;28.23;;;19.15;;
70576;SDS011;58138;43.138;24.702;2022-12-08T14:12:47;29.42;;;19.90;;
70576;SDS011;58138;43.138;24.702;2022-12-08T14:15:16;33.17;;;20.92;;
70576;SDS011;58138;43.138;24.702;2022-12-08T14:17:49;37.28;;;23.20;;
70576;SDS011;58138;43.138;24.702;2022-12-08T14:20:23;36.75;;;24.50;;
70576;SDS011;58138;43.138;24.702;2022-12-08T14:22:51;43.35;;;27.45;;
70576;SDS011;58138;43.138;24.702;2022-12-08T14:25:17;51.83;;;31.80;;
70576;SDS011;58138;43.138;24.702;2022-12-08T14:27:43;40.67;;;26.92;;
70576;SDS011;58138;43.138;24.702;2022-12-08T14:40:41;42.88;;;24.67;;
70576;SDS011;58138;43.138;24.702;2022-12-08T14:51:05;46.95;;;27.70;;
70576;SDS011;58138;43.138;24.702;2022-12-08T14:56:19;47.28;;;32.28;;
70576;SDS011;58138;43.138;24.702;2022-12-08T14:58:48;42.63;;;26.83;;
70576;SDS011;58138;43.138;24.702;2022-12-08T15:01:16;45.90;;;28.50;;
70576;SDS011;58138;43.138;24.702;2022-12-08T15:03:46;47.50;;;25.17;;
70576;SDS011;58138;43.138;24.702;2022-12-08T15:06:12;53.22;;;33.28;;
70576;SDS011;58138;43.138;24.702;2022-12-08T15:08:55;55.35;;;34.40;;
70576;SDS011;58138;43.138;24.702;2022-12-08T15:11:32;46.83;;;26.65;;
70576;SDS011;58138;43.138;24.702;2022-12-08T15:13:58;41.65;;;26.27;;
70576;SDS011;58138;43.138;24.702;2022-12-08T15:16:26;59.97;;;34.80;;
70576;SDS011;58138;43.138;24.702;2022-12-08T15:21:55;61.78;;;31.17;;
70576;SDS011;58138;43.138;24.702;2022-12-08T15:24:24;53.60;;;33.63;;
70576;SDS011;58138;43.138;24.702;2022-12-08T15:26:51;65.97;;;38.50;;
70576;SDS011;58138;43.138;24.702;2022-12-08T15:31:46;62.55;;;33.75;;
70576;SDS011;58138;43.138;24.702;2022-12-08T15:34:12;73.65;;;36.13;;
70576;SDS011;58138;43.138;24.702;2022-12-08T15:36:38;53.20;;;31.13;;
70576;SDS011;58138;43.138;24.702;2022-12-08T15:39:13;48.50;;;27.10;;
70576;SDS011;58138;43.138;24.702;2022-12-08T15:41:59;50.58;;;29.90;;
70576;SDS011;58138;43.138;24.702;2022-12-08T15:44:25;71.25;;;37.47;;
70576;SDS011;58138;43.138;24.702;2022-12-08T15:46:51;77.20;;;45.67;;
70576;SDS011;58138;43.138;24.702;2022-12-08T15:49:18;94.45;;;58.05;;
70576;SDS011;58138;43.138;24.702;2022-12-08T15:51:45;85.80;;;48.67;;
70576;SDS011;58138;43.138;24.702;2022-12-08T15:54:11;87.55;;;45.42;;
70576;SDS011;58138;43.138;24.702;2022-12-08T15:56:39;71.55;;;38.15;;
70576;SDS011;58138;43.138;24.702;2022-12-08T15:59:11;69.82;;;38.38;;
70576;SDS011;58138;43.138;24.702;2022-12-08T16:01:39;69.97;;;37.75;;
70576;SDS011;58138;43.138;24.702;2022-12-08T16:04:04;80.13;;;43.22;;
70576;SDS011;58138;43.138;24.702;2022-12-08T16:06:30;72.53;;;35.78;;
70576;SDS011;58138;43.138;24.702;2022-12-08T16:08:55;68.00;;;35.65;;
70576;SDS011;58138;43.138;24.702;2022-12-08T16:11:21;67.05;;;36.45;;
70576;SDS011;58138;43.138;24.702;2022-12-08T16:14:04;86.20;;;32.20;;
70576;SDS011;58138;43.138;24.702;2022-12-08T16:16:30;64.00;;;34.35;;
70576;SDS011;58138;43.138;24.702;2022-12-08T16:18:55;89.95;;;50.85;;
70576;SDS011;58138;43.138;24.702;2022-12-08T16:21:21;72.05;;;34.03;;
70576;SDS011;58138;43.138;24.702;2022-12-08T16:23:46;76.18;;;42.35;;
70576;SDS011;58138;43.138;24.702;2022-12-08T16:28:37;67.18;;;39.13;;
70576;SDS011;58138;43.138;24.702;2022-12-08T16:31:04;91.03;;;41.95;;
70576;SDS011;58138;43.138;24.702;2022-12-08T16:33:30;83.38;;;40.05;;
70576;SDS011;58138;43.138;24.702;2022-12-08T16:35:55;80.57;;;34.10;;